sensor_id;sensor_type;location;lat;lon;timestamp;temperature;humidity
49855;DHT22;35752;52.164;21.244;2022-11-20T00:01:19;-4.20;99.90
49855;DHT22;35752;52.164;21.244;2022-11-20T00:03:45;-4.20;99.90
49855;DHT22;35752;52.164;21.244;2022-11-20T00:06:14;-4.20;99.90
49855;DHT22;35752;52.164;21.244;2022-11-20T00:08:40;-4.30;99.90
49855;DHT22;35752;52.164;21.244;2022-11-20T00:11:12;-4.30;99.90
49855;DHT22;35752;52.164;21.244;2022-11-20T00:13:39;-4.30;99.90
49855;DHT22;35752;52.164;21.244;2022-11-20T00:16:06;-4.30;99.90
49855;DHT22;35752;52.164;21.244;2022-11-20T00:18:33;-4.40;99.90
49855;DHT22;35752;52.164;21.244;2022-11-20T00:21:09;-4.40;99.90
49855;DHT22;35752;52.164;21.244;2022-11-20T00:23:35;-4.40;99.90
49855;DHT22;35752;52.164;21.244;2022-11-20T00:26:09;-4.40;99.90
49855;DHT22;35752;52.164;21.244;2022-11-20T00:28:36;-4.40;99.90
49855;DHT22;35752;52.164;21.244;2022-11-20T00:31:10;-4.40;99.90
49855;DHT22;35752;52.164;21.244;2022-11-20T00:33:36;-4.40;99.90
49855;DHT22;35752;52.164;21.244;2022-11-20T00:36:07;-4.40;99.90
49855;DHT22;35752;52.164;21.244;2022-11-20T00:38:33;-4.40;99.90
49855;DHT22;35752;52.164;21.244;2022-11-20T00:41:02;-4.40;99.90
49855;DHT22;35752;52.164;21.244;2022-11-20T00:43:28;-4.40;99.90
49855;DHT22;35752;52.164;21.244;2022-11-20T00:45:57;-4.40;99.90
49855;DHT22;35752;52.164;21.244;2022-11-20T00:48:23;-4.40;99.90
49855;DHT22;35752;52.164;21.244;2022-11-20T00:50:49;-4.40;99.90
49855;DHT22;35752;52.164;21.244;2022-11-20T00:53:14;-4.50;99.90
49855;DHT22;35752;52.164;21.244;2022-11-20T00:55:40;-4.50;99.90
49855;DHT22;35752;52.164;21.244;2022-11-20T00:58:06;-4.50;99.90
49855;DHT22;35752;52.164;21.244;2022-11-20T01:00:32;-4.50;99.90
49855;DHT22;35752;52.164;21.244;2022-11-20T01:02:57;-4.50;99.90
49855;DHT22;35752;52.164;21.244;2022-11-20T01:05:23;-4.50;99.90
49855;DHT22;35752;52.164;21.244;2022-11-20T01:07:49;-4.50;99.90
49855;DHT22;35752;52.164;21.244;2022-11-20T01:10:14;-4.50;99.90
49855;DHT22;35752;52.164;21.244;2022-11-20T01:12:40;-4.40;99.90
49855;DHT22;35752;52.164;21.244;2022-11-20T01:15:06;-4.50;99.90
49855;DHT22;35752;52.164;21.244;2022-11-20T01:17:32;-4.50;99.90
49855;DHT22;35752;52.164;21.244;2022-11-20T01:19:57;-4.50;99.90
49855;DHT22;35752;52.164;21.244;2022-11-20T01:22:23;-4.50;99.90
49855;DHT22;35752;52.164;21.244;2022-11-20T01:24:48;-4.60;99.90
49855;DHT22;35752;52.164;21.244;2022-11-20T01:27:14;-4.60;99.90
49855;DHT22;35752;52.164;21.244;2022-11-20T01:29:40;-4.60;99.90
49855;DHT22;35752;52.164;21.244;2022-11-20T01:32:05;-4.70;99.90
49855;DHT22;35752;52.164;21.244;2022-11-20T01:34:31;-4.70;99.90
49855;DHT22;35752;52.164;21.244;2022-11-20T01:36:56;-4.60;99.90
49855;DHT22;35752;52.164;21.244;2022-11-20T01:39:24;-4.60;99.90
49855;DHT22;35752;52.164;21.244;2022-11-20T01:41:52;-4.70;99.90
49855;DHT22;35752;52.164;21.244;2022-11-20T01:44:57;-4.70;99.90
49855;DHT22;35752;52.164;21.244;2022-11-20T01:47:43;-4.80;99.90
49855;DHT22;35752;52.164;21.244;2022-11-20T01:50:23;-4.80;99.90
49855;DHT22;35752;52.164;21.244;2022-11-20T01:53:25;-4.80;99.90
49855;DHT22;35752;52.164;21.244;2022-11-20T01:55:51;-4.80;99.90
49855;DHT22;35752;52.164;21.244;2022-11-20T01:58:22;-4.80;99.90
49855;DHT22;35752;52.164;21.244;2022-11-20T02:00:49;-4.90;99.90
49855;DHT22;35752;52.164;21.244;2022-11-20T02:03:18;-4.80;99.90
49855;DHT22;35752;52.164;21.244;2022-11-20T02:08:18;-4.80;99.90
49855;DHT22;35752;52.164;21.244;2022-11-20T02:10:44;-4.80;99.90
49855;DHT22;35752;52.164;21.244;2022-11-20T02:13:10;-4.80;99.90
49855;DHT22;35752;52.164;21.244;2022-11-20T02:15:54;-4.80;99.90
49855;DHT22;35752;52.164;21.244;2022-11-20T02:18:21;-4.80;99.90
49855;DHT22;35752;52.164;21.244;2022-11-20T02:20:49;-4.80;99.90
49855;DHT22;35752;52.164;21.244;2022-11-20T02:25:50;-4.70;99.90
49855;DHT22;35752;52.164;21.244;2022-11-20T02:28:18;-4.70;99.90
49855;DHT22;35752;52.164;21.244;2022-11-20T02:30:43;-4.70;99.90
49855;DHT22;35752;52.164;21.244;2022-11-20T02:33:09;-4.70;99.90
49855;DHT22;35752;52.164;21.244;2022-11-20T02:38:02;-4.60;99.90
49855;DHT22;35752;52.164;21.244;2022-11-20T02:40:29;-4.60;99.90
49855;DHT22;35752;52.164;21.244;2022-11-20T02:42:55;-4.50;99.90
49855;DHT22;35752;52.164;21.244;2022-11-20T02:45:22;-4.50;99.90
49855;DHT22;35752;52.164;21.244;2022-11-20T02:47:49;-4.50;99.90
49855;DHT22;35752;52.164;21.244;2022-11-20T02:50:15;-4.50;99.90
49855;DHT22;35752;52.164;21.244;2022-11-20T02:52:41;-4.50;99.90
49855;DHT22;35752;52.164;21.244;2022-11-20T02:55:07;-4.50;99.90
49855;DHT22;35752;52.164;21.244;2022-11-20T02:57:33;-4.50;99.90
49855;DHT22;35752;52.164;21.244;2022-11-20T02:59:58;-4.40;99.90
49855;DHT22;35752;52.164;21.244;2022-11-20T03:02:24;-4.50;99.90
49855;DHT22;35752;52.164;21.244;2022-11-20T03:04:50;-4.40;99.90
49855;DHT22;35752;52.164;21.244;2022-11-20T03:07:15;-4.40;99.90
49855;DHT22;35752;52.164;21.244;2022-11-20T03:09:41;-4.40;99.90
49855;DHT22;35752;52.164;21.244;2022-11-20T03:12:07;-4.40;99.90
49855;DHT22;35752;52.164;21.244;2022-11-20T03:14:32;-4.40;99.90
49855;DHT22;35752;52.164;21.244;2022-11-20T03:16:58;-4.40;99.90
49855;DHT22;35752;52.164;21.244;2022-11-20T03:19:24;-4.30;99.90
49855;DHT22;35752;52.164;21.244;2022-11-20T03:21:49;-4.40;99.90
49855;DHT22;35752;52.164;21.244;2022-11-20T03:24:16;-4.40;99.90
49855;DHT22;35752;52.164;21.244;2022-11-20T03:26:42;-4.30;99.90
49855;DHT22;35752;52.164;21.244;2022-11-20T03:29:07;-4.40;99.90
49855;DHT22;35752;52.164;21.244;2022-11-20T03:31:36;-4.40;99.90
49855;DHT22;35752;52.164;21.244;2022-11-20T03:34:02;-4.30;99.90
49855;DHT22;35752;52.164;21.244;2022-11-20T03:36:28;-4.30;99.90
49855;DHT22;35752;52.164;21.244;2022-11-20T03:38:55;-4.30;99.90
49855;DHT22;35752;52.164;21.244;2022-11-20T03:41:23;-4.40;99.90
49855;DHT22;35752;52.164;21.244;2022-11-20T03:43:54;-4.30;99.90
49855;DHT22;35752;52.164;21.244;2022-11-20T03:46:20;-4.30;99.90
49855;DHT22;35752;52.164;21.244;2022-11-20T03:48:46;-4.30;99.90
49855;DHT22;35752;52.164;21.244;2022-11-20T03:51:21;-4.30;99.90
49855;DHT22;35752;52.164;21.244;2022-11-20T03:53:48;-4.30;99.90
49855;DHT22;35752;52.164;21.244;2022-11-20T03:56:15;-4.30;99.90
49855;DHT22;35752;52.164;21.244;2022-11-20T03:58:42;-4.30;99.90
49855;DHT22;35752;52.164;21.244;2022-11-20T04:01:09;-4.40;99.90
49855;DHT22;35752;52.164;21.244;2022-11-20T04:03:36;-4.40;99.90
49855;DHT22;35752;52.164;21.244;2022-11-20T04:06:14;-4.40;99.90
49855;DHT22;35752;52.164;21.244;2022-11-20T04:08:41;-4.40;99.90
49855;DHT22;35752;52.164;21.244;2022-11-20T04:11:12;-4.40;99.90
49855;DHT22;35752;52.164;21.244;2022-11-20T04:13:38;-4.50;99.90
49855;DHT22;35752;52.164;21.244;2022-11-20T04:16:04;-4.40;99.90
49855;DHT22;35752;52.164;21.244;2022-11-20T04:18:30;-4.50;99.90
49855;DHT22;35752;52.164;21.244;2022-11-20T04:20:59;-4.50;99.90
49855;DHT22;35752;52.164;21.244;2022-11-20T04:23:25;-4.50;99.90
49855;DHT22;35752;52.164;21.244;2022-11-20T04:25:50;-4.60;99.90
49855;DHT22;35752;52.164;21.244;2022-11-20T04:28:16;-4.60;99.90
49855;DHT22;35752;52.164;21.244;2022-11-20T04:30:42;-4.60;99.90
49855;DHT22;35752;52.164;21.244;2022-11-20T04:33:08;-4.60;99.90
49855;DHT22;35752;52.164;21.244;2022-11-20T04:35:34;-4.70;99.90
49855;DHT22;35752;52.164;21.244;2022-11-20T04:38:00;-4.70;99.90
49855;DHT22;35752;52.164;21.244;2022-11-20T04:40:27;-4.70;99.90
49855;DHT22;35752;52.164;21.244;2022-11-20T04:42:54;-4.70;99.90
49855;DHT22;35752;52.164;21.244;2022-11-20T04:45:20;-4.70;99.90
49855;DHT22;35752;52.164;21.244;2022-11-20T04:47:45;-4.70;99.90
49855;DHT22;35752;52.164;21.244;2022-11-20T04:50:11;-4.70;99.90
49855;DHT22;35752;52.164;21.244;2022-11-20T04:52:37;-4.70;99.90
49855;DHT22;35752;52.164;21.244;2022-11-20T04:55:03;-4.80;99.90
49855;DHT22;35752;52.164;21.244;2022-11-20T04:57:28;-4.80;99.90
49855;DHT22;35752;52.164;21.244;2022-11-20T04:59:54;-4.80;99.90
49855;DHT22;35752;52.164;21.244;2022-11-20T05:02:20;-4.80;99.90
49855;DHT22;35752;52.164;21.244;2022-11-20T05:04:46;-4.90;99.90
49855;DHT22;35752;52.164;21.244;2022-11-20T05:07:11;-4.90;99.90
49855;DHT22;35752;52.164;21.244;2022-11-20T05:09:37;-4.90;99.90
49855;DHT22;35752;52.164;21.244;2022-11-20T05:12:03;-4.90;99.90
49855;DHT22;35752;52.164;21.244;2022-11-20T05:14:28;-4.90;99.90
49855;DHT22;35752;52.164;21.244;2022-11-20T05:16:54;-4.90;99.90
49855;DHT22;35752;52.164;21.244;2022-11-20T05:19:20;-5.00;99.90
49855;DHT22;35752;52.164;21.244;2022-11-20T05:21:45;-5.00;99.90
49855;DHT22;35752;52.164;21.244;2022-11-20T05:24:11;-5.00;99.90
49855;DHT22;35752;52.164;21.244;2022-11-20T05:26:37;-5.00;99.90
49855;DHT22;35752;52.164;21.244;2022-11-20T05:29:02;-5.10;99.90
49855;DHT22;35752;52.164;21.244;2022-11-20T05:31:28;-5.00;99.90
49855;DHT22;35752;52.164;21.244;2022-11-20T05:33:55;-5.00;99.90
49855;DHT22;35752;52.164;21.244;2022-11-20T05:36:21;-5.10;99.90
49855;DHT22;35752;52.164;21.244;2022-11-20T05:38:47;-5.10;99.90
49855;DHT22;35752;52.164;21.244;2022-11-20T05:41:18;-5.10;99.90
49855;DHT22;35752;52.164;21.244;2022-11-20T05:43:45;-5.10;99.90
49855;DHT22;35752;52.164;21.244;2022-11-20T05:46:13;-5.10;99.90
49855;DHT22;35752;52.164;21.244;2022-11-20T05:48:40;-5.10;99.90
49855;DHT22;35752;52.164;21.244;2022-11-20T05:51:09;-5.10;99.90
49855;DHT22;35752;52.164;21.244;2022-11-20T05:53:35;-5.10;99.90
49855;DHT22;35752;52.164;21.244;2022-11-20T05:58:29;-5.20;99.90
49855;DHT22;35752;52.164;21.244;2022-11-20T06:01:16;-5.20;99.90
49855;DHT22;35752;52.164;21.244;2022-11-20T06:03:42;-5.20;99.90
49855;DHT22;35752;52.164;21.244;2022-11-20T06:06:11;-5.30;99.90
49855;DHT22;35752;52.164;21.244;2022-11-20T06:08:37;-5.30;99.90
49855;DHT22;35752;52.164;21.244;2022-11-20T06:11:08;-5.50;99.90
49855;DHT22;35752;52.164;21.244;2022-11-20T06:13:34;-5.60;99.90
49855;DHT22;35752;52.164;21.244;2022-11-20T06:16:00;-5.80;99.90
49855;DHT22;35752;52.164;21.244;2022-11-20T06:18:27;-5.70;99.90
49855;DHT22;35752;52.164;21.244;2022-11-20T06:21:05;-6.00;99.90
49855;DHT22;35752;52.164;21.244;2022-11-20T06:23:32;-5.90;99.90
49855;DHT22;35752;52.164;21.244;2022-11-20T06:26:02;-5.80;99.90
49855;DHT22;35752;52.164;21.244;2022-11-20T06:28:27;-5.70;99.90
49855;DHT22;35752;52.164;21.244;2022-11-20T06:30:53;-5.60;99.90
49855;DHT22;35752;52.164;21.244;2022-11-20T06:33:19;-5.60;99.90
49855;DHT22;35752;52.164;21.244;2022-11-20T06:35:44;-5.60;99.90
49855;DHT22;35752;52.164;21.244;2022-11-20T06:38:10;-5.50;99.90
49855;DHT22;35752;52.164;21.244;2022-11-20T06:40:36;-5.50;99.90
49855;DHT22;35752;52.164;21.244;2022-11-20T06:43:01;-5.50;99.90
49855;DHT22;35752;52.164;21.244;2022-11-20T06:45:27;-5.50;99.90
49855;DHT22;35752;52.164;21.244;2022-11-20T06:47:52;-5.40;99.90
49855;DHT22;35752;52.164;21.244;2022-11-20T06:50:18;-5.60;99.90
49855;DHT22;35752;52.164;21.244;2022-11-20T06:52:43;-5.50;99.90
49855;DHT22;35752;52.164;21.244;2022-11-20T06:55:09;-5.40;99.90
49855;DHT22;35752;52.164;21.244;2022-11-20T06:57:35;-5.30;99.90
49855;DHT22;35752;52.164;21.244;2022-11-20T07:00:00;-5.20;99.90
49855;DHT22;35752;52.164;21.244;2022-11-20T07:02:26;-5.20;99.90
49855;DHT22;35752;52.164;21.244;2022-11-20T07:04:52;-5.10;99.90
49855;DHT22;35752;52.164;21.244;2022-11-20T07:07:17;-5.00;99.90
49855;DHT22;35752;52.164;21.244;2022-11-20T07:09:43;-5.00;99.90
49855;DHT22;35752;52.164;21.244;2022-11-20T07:12:08;-4.90;99.90
49855;DHT22;35752;52.164;21.244;2022-11-20T07:14:35;-4.90;99.90
49855;DHT22;35752;52.164;21.244;2022-11-20T07:17:00;-4.80;99.90
49855;DHT22;35752;52.164;21.244;2022-11-20T07:19:26;-4.80;99.90
49855;DHT22;35752;52.164;21.244;2022-11-20T07:21:52;-4.70;99.90
49855;DHT22;35752;52.164;21.244;2022-11-20T07:24:17;-4.60;99.90
49855;DHT22;35752;52.164;21.244;2022-11-20T07:26:46;-4.50;99.90
49855;DHT22;35752;52.164;21.244;2022-11-20T07:29:12;-4.50;99.90
49855;DHT22;35752;52.164;21.244;2022-11-20T07:31:37;-4.40;99.90
49855;DHT22;35752;52.164;21.244;2022-11-20T07:34:03;-4.30;99.90
49855;DHT22;35752;52.164;21.244;2022-11-20T07:36:29;-4.30;99.90
49855;DHT22;35752;52.164;21.244;2022-11-20T07:38:54;-4.20;99.90
49855;DHT22;35752;52.164;21.244;2022-11-20T07:41:20;-4.10;99.90
49855;DHT22;35752;52.164;21.244;2022-11-20T07:43:46;-4.00;99.90
49855;DHT22;35752;52.164;21.244;2022-11-20T07:46:11;-3.90;99.90
49855;DHT22;35752;52.164;21.244;2022-11-20T07:48:37;-3.80;99.90
49855;DHT22;35752;52.164;21.244;2022-11-20T07:51:03;-3.80;99.90
49855;DHT22;35752;52.164;21.244;2022-11-20T07:53:28;-3.70;99.90
49855;DHT22;35752;52.164;21.244;2022-11-20T07:55:54;-3.60;99.90
49855;DHT22;35752;52.164;21.244;2022-11-20T07:58:20;-3.50;99.90
49855;DHT22;35752;52.164;21.244;2022-11-20T08:00:46;-3.50;99.90
49855;DHT22;35752;52.164;21.244;2022-11-20T08:03:12;-3.40;99.90
49855;DHT22;35752;52.164;21.244;2022-11-20T08:05:38;-3.30;99.90
49855;DHT22;35752;52.164;21.244;2022-11-20T08:08:04;-3.20;99.90
49855;DHT22;35752;52.164;21.244;2022-11-20T08:10:29;-3.10;99.90
49855;DHT22;35752;52.164;21.244;2022-11-20T08:12:55;-3.00;99.90
49855;DHT22;35752;52.164;21.244;2022-11-20T08:15:39;-3.00;99.90
49855;DHT22;35752;52.164;21.244;2022-11-20T08:18:11;-2.90;99.90
49855;DHT22;35752;52.164;21.244;2022-11-20T08:20:37;-2.80;99.90
49855;DHT22;35752;52.164;21.244;2022-11-20T08:23:05;-2.70;99.90
49855;DHT22;35752;52.164;21.244;2022-11-20T08:25:32;-2.60;99.90
49855;DHT22;35752;52.164;21.244;2022-11-20T08:27:59;-2.60;99.90
49855;DHT22;35752;52.164;21.244;2022-11-20T08:30:26;-2.50;99.90
49855;DHT22;35752;52.164;21.244;2022-11-20T08:32:52;-2.30;99.90
49855;DHT22;35752;52.164;21.244;2022-11-20T08:35:20;-2.20;99.90
49855;DHT22;35752;52.164;21.244;2022-11-20T08:37:48;-2.20;99.90
49855;DHT22;35752;52.164;21.244;2022-11-20T08:40:14;-2.10;99.90
49855;DHT22;35752;52.164;21.244;2022-11-20T08:42:50;-2.00;99.90
49855;DHT22;35752;52.164;21.244;2022-11-20T08:45:17;-1.90;99.90
49855;DHT22;35752;52.164;21.244;2022-11-20T08:47:44;-1.80;99.90
49855;DHT22;35752;52.164;21.244;2022-11-20T08:50:11;-1.70;99.90
49855;DHT22;35752;52.164;21.244;2022-11-20T08:52:37;-1.60;99.90
49855;DHT22;35752;52.164;21.244;2022-11-20T08:55:04;-1.60;99.90
49855;DHT22;35752;52.164;21.244;2022-11-20T08:57:37;-1.50;99.90
49855;DHT22;35752;52.164;21.244;2022-11-20T09:00:07;-1.50;99.90
49855;DHT22;35752;52.164;21.244;2022-11-20T09:02:33;-1.40;99.90
49855;DHT22;35752;52.164;21.244;2022-11-20T09:04:59;-1.40;99.90
49855;DHT22;35752;52.164;21.244;2022-11-20T09:07:25;-1.40;99.90
49855;DHT22;35752;52.164;21.244;2022-11-20T09:09:50;-1.40;99.90
49855;DHT22;35752;52.164;21.244;2022-11-20T09:12:16;-1.30;99.90
49855;DHT22;35752;52.164;21.244;2022-11-20T09:14:44;-1.30;99.90
49855;DHT22;35752;52.164;21.244;2022-11-20T09:17:10;-1.20;99.90
49855;DHT22;35752;52.164;21.244;2022-11-20T09:19:39;-1.20;99.90
49855;DHT22;35752;52.164;21.244;2022-11-20T09:22:05;-1.10;99.90
49855;DHT22;35752;52.164;21.244;2022-11-20T09:24:31;-1.00;99.90
49855;DHT22;35752;52.164;21.244;2022-11-20T09:26:57;-0.90;99.90
49855;DHT22;35752;52.164;21.244;2022-11-20T09:29:22;-0.90;99.90
49855;DHT22;35752;52.164;21.244;2022-11-20T09:31:48;-0.90;99.90
49855;DHT22;35752;52.164;21.244;2022-11-20T09:34:13;-0.80;99.90
49855;DHT22;35752;52.164;21.244;2022-11-20T09:36:39;-0.80;99.90
49855;DHT22;35752;52.164;21.244;2022-11-20T09:39:05;-0.80;99.90
49855;DHT22;35752;52.164;21.244;2022-11-20T09:50:31;-0.60;99.90
49855;DHT22;35752;52.164;21.244;2022-11-20T09:53:10;-0.60;99.90
49855;DHT22;35752;52.164;21.244;2022-11-20T09:55:37;-0.50;99.90
49855;DHT22;35752;52.164;21.244;2022-11-20T09:58:07;-0.50;99.90
49855;DHT22;35752;52.164;21.244;2022-11-20T10:00:38;-0.40;99.90
49855;DHT22;35752;52.164;21.244;2022-11-20T10:08:28;-0.20;99.90
49855;DHT22;35752;52.164;21.244;2022-11-20T10:11:21;-0.20;99.90
49855;DHT22;35752;52.164;21.244;2022-11-20T10:25:15;-0.10;99.90
49855;DHT22;35752;52.164;21.244;2022-11-20T10:27:48;0.00;99.90
49855;DHT22;35752;52.164;21.244;2022-11-20T10:30:18;0.00;99.90
49855;DHT22;35752;52.164;21.244;2022-11-20T10:32:54;0.10;99.90
49855;DHT22;35752;52.164;21.244;2022-11-20T10:35:42;0.10;99.90
49855;DHT22;35752;52.164;21.244;2022-11-20T10:41:03;0.10;99.90
49855;DHT22;35752;52.164;21.244;2022-11-20T10:46:43;0.20;99.90
49855;DHT22;35752;52.164;21.244;2022-11-20T10:49:17;0.20;99.90
49855;DHT22;35752;52.164;21.244;2022-11-20T10:51:53;0.30;99.90
49855;DHT22;35752;52.164;21.244;2022-11-20T11:00:10;0.40;99.90
49855;DHT22;35752;52.164;21.244;2022-11-20T11:02:40;0.40;99.90
49855;DHT22;35752;52.164;21.244;2022-11-20T11:05:41;0.40;99.90
49855;DHT22;35752;52.164;21.244;2022-11-20T11:07:58;0.40;99.90
49855;DHT22;35752;52.164;21.244;2022-11-20T11:12:56;0.40;99.90
49855;DHT22;35752;52.164;21.244;2022-11-20T11:17:54;0.50;99.90
49855;DHT22;35752;52.164;21.244;2022-11-20T11:20:22;0.60;99.90
49855;DHT22;35752;52.164;21.244;2022-11-20T11:22:53;0.50;99.90
49855;DHT22;35752;52.164;21.244;2022-11-20T11:25:22;0.60;99.90
49855;DHT22;35752;52.164;21.244;2022-11-20T11:27:48;0.60;99.90
49855;DHT22;35752;52.164;21.244;2022-11-20T11:30:16;0.60;99.90
49855;DHT22;35752;52.164;21.244;2022-11-20T11:32:43;0.60;99.90
49855;DHT22;35752;52.164;21.244;2022-11-20T11:35:47;0.60;99.90
49855;DHT22;35752;52.164;21.244;2022-11-20T11:38:21;0.60;99.90
49855;DHT22;35752;52.164;21.244;2022-11-20T11:40:47;0.60;99.90
49855;DHT22;35752;52.164;21.244;2022-11-20T11:43:21;0.60;99.90
49855;DHT22;35752;52.164;21.244;2022-11-20T11:46:32;0.70;99.90
49855;DHT22;35752;52.164;21.244;2022-11-20T11:54:10;0.70;99.90
49855;DHT22;35752;52.164;21.244;2022-11-20T11:56:38;0.80;99.90
49855;DHT22;35752;52.164;21.244;2022-11-20T11:59:06;0.70;99.90
49855;DHT22;35752;52.164;21.244;2022-11-20T12:01:44;0.70;99.90
49855;DHT22;35752;52.164;21.244;2022-11-20T12:06:51;0.70;99.90
49855;DHT22;35752;52.164;21.244;2022-11-20T12:09:20;0.70;99.90
49855;DHT22;35752;52.164;21.244;2022-11-20T12:11:56;0.70;99.90
49855;DHT22;35752;52.164;21.244;2022-11-20T12:14:43;0.70;99.90
49855;DHT22;35752;52.164;21.244;2022-11-20T12:17:11;0.70;99.90
49855;DHT22;35752;52.164;21.244;2022-11-20T12:19:37;0.80;99.90
49855;DHT22;35752;52.164;21.244;2022-11-20T12:30:24;0.80;99.90
49855;DHT22;35752;52.164;21.244;2022-11-20T12:43:27;0.80;99.90
49855;DHT22;35752;52.164;21.244;2022-11-20T12:51:43;0.90;99.90
49855;DHT22;35752;52.164;21.244;2022-11-20T12:54:44;0.80;99.90
49855;DHT22;35752;52.164;21.244;2022-11-20T12:57:29;0.90;99.90
49855;DHT22;35752;52.164;21.244;2022-11-20T13:02:55;0.80;99.90
49855;DHT22;35752;52.164;21.244;2022-11-20T13:05:55;0.80;99.90
49855;DHT22;35752;52.164;21.244;2022-11-20T13:08:25;0.70;99.90
49855;DHT22;35752;52.164;21.244;2022-11-20T13:19:19;0.60;99.90
49855;DHT22;35752;52.164;21.244;2022-11-20T13:21:47;0.60;99.90
49855;DHT22;35752;52.164;21.244;2022-11-20T13:29:42;0.60;99.90
49855;DHT22;35752;52.164;21.244;2022-11-20T13:32:18;0.60;99.90
49855;DHT22;35752;52.164;21.244;2022-11-20T13:35:04;0.60;99.90
49855;DHT22;35752;52.164;21.244;2022-11-20T13:37:31;0.50;99.90
49855;DHT22;35752;52.164;21.244;2022-11-20T13:40:21;0.50;99.90
49855;DHT22;35752;52.164;21.244;2022-11-20T13:43:18;0.40;99.90
49855;DHT22;35752;52.164;21.244;2022-11-20T13:45:58;0.40;99.90
49855;DHT22;35752;52.164;21.244;2022-11-20T13:48:29;0.40;99.90
49855;DHT22;35752;52.164;21.244;2022-11-20T13:51:04;0.40;99.90
49855;DHT22;35752;52.164;21.244;2022-11-20T14:02:32;0.20;99.90
49855;DHT22;35752;52.164;21.244;2022-11-20T14:04:59;0.10;99.90
49855;DHT22;35752;52.164;21.244;2022-11-20T14:07:35;0.10;99.90
49855;DHT22;35752;52.164;21.244;2022-11-20T14:10:03;0.00;99.90
49855;DHT22;35752;52.164;21.244;2022-11-20T14:12:31;0.10;99.90
49855;DHT22;35752;52.164;21.244;2022-11-20T14:14:57;0.00;99.90
49855;DHT22;35752;52.164;21.244;2022-11-20T14:17:34;0.00;99.90
49855;DHT22;35752;52.164;21.244;2022-11-20T14:20:11;-0.10;99.90
49855;DHT22;35752;52.164;21.244;2022-11-20T14:22:37;-0.10;99.90
49855;DHT22;35752;52.164;21.244;2022-11-20T14:27:42;-0.20;99.90
49855;DHT22;35752;52.164;21.244;2022-11-20T14:30:19;-0.20;99.90
49855;DHT22;35752;52.164;21.244;2022-11-20T14:32:46;-0.20;99.90
49855;DHT22;35752;52.164;21.244;2022-11-20T14:35:28;-0.20;99.90
49855;DHT22;35752;52.164;21.244;2022-11-20T14:37:55;-0.20;99.90
49855;DHT22;35752;52.164;21.244;2022-11-20T14:40:31;-0.20;99.90
49855;DHT22;35752;52.164;21.244;2022-11-20T14:42:58;-0.30;99.90
49855;DHT22;35752;52.164;21.244;2022-11-20T14:45:25;-0.20;99.90
49855;DHT22;35752;52.164;21.244;2022-11-20T14:47:53;-0.30;99.90
49855;DHT22;35752;52.164;21.244;2022-11-20T14:50:27;-0.40;99.90
49855;DHT22;35752;52.164;21.244;2022-11-20T14:58:22;-0.50;99.90
49855;DHT22;35752;52.164;21.244;2022-11-20T15:00:57;-0.40;99.90
49855;DHT22;35752;52.164;21.244;2022-11-20T15:03:31;-0.40;99.90
49855;DHT22;35752;52.164;21.244;2022-11-20T15:05:57;-0.50;99.90
49855;DHT22;35752;52.164;21.244;2022-11-20T15:08:23;-0.40;99.90
49855;DHT22;35752;52.164;21.244;2022-11-20T15:10:50;-0.40;99.90
49855;DHT22;35752;52.164;21.244;2022-11-20T15:15:53;-0.50;99.90
49855;DHT22;35752;52.164;21.244;2022-11-20T15:18:32;-0.40;99.90
49855;DHT22;35752;52.164;21.244;2022-11-20T15:21:01;-0.50;99.90
49855;DHT22;35752;52.164;21.244;2022-11-20T15:23:28;-0.50;99.90
49855;DHT22;35752;52.164;21.244;2022-11-20T15:25:54;-0.50;99.90
49855;DHT22;35752;52.164;21.244;2022-11-20T15:28:21;-0.60;99.90
49855;DHT22;35752;52.164;21.244;2022-11-20T15:30:49;-0.50;99.90
49855;DHT22;35752;52.164;21.244;2022-11-20T15:33:16;-0.50;99.90
49855;DHT22;35752;52.164;21.244;2022-11-20T15:35:42;-0.60;99.90
49855;DHT22;35752;52.164;21.244;2022-11-20T15:38:08;-0.50;99.90
49855;DHT22;35752;52.164;21.244;2022-11-20T15:40:34;-0.50;99.90
49855;DHT22;35752;52.164;21.244;2022-11-20T15:42:59;-0.50;99.90
49855;DHT22;35752;52.164;21.244;2022-11-20T15:45:30;-0.50;99.90
49855;DHT22;35752;52.164;21.244;2022-11-20T15:47:58;-0.50;99.90
49855;DHT22;35752;52.164;21.244;2022-11-20T15:50:27;-0.60;99.90
49855;DHT22;35752;52.164;21.244;2022-11-20T15:52:54;-0.60;99.90
49855;DHT22;35752;52.164;21.244;2022-11-20T15:55:20;-0.70;99.90
49855;DHT22;35752;52.164;21.244;2022-11-20T15:57:45;-0.70;99.90
49855;DHT22;35752;52.164;21.244;2022-11-20T16:00:12;-0.70;99.90
49855;DHT22;35752;52.164;21.244;2022-11-20T16:02:37;-0.70;99.90
49855;DHT22;35752;52.164;21.244;2022-11-20T16:05:03;-0.70;99.90
49855;DHT22;35752;52.164;21.244;2022-11-20T16:07:29;-0.70;99.90
49855;DHT22;35752;52.164;21.244;2022-11-20T16:09:55;-0.70;99.90
49855;DHT22;35752;52.164;21.244;2022-11-20T16:12:21;-0.70;99.90
49855;DHT22;35752;52.164;21.244;2022-11-20T16:15:07;-0.70;99.90
49855;DHT22;35752;52.164;21.244;2022-11-20T16:17:51;-0.70;99.90
49855;DHT22;35752;52.164;21.244;2022-11-20T16:20:17;-0.70;99.90
49855;DHT22;35752;52.164;21.244;2022-11-20T16:22:42;-0.70;99.90
49855;DHT22;35752;52.164;21.244;2022-11-20T16:25:08;-0.70;99.90
49855;DHT22;35752;52.164;21.244;2022-11-20T16:27:34;-0.70;99.90
49855;DHT22;35752;52.164;21.244;2022-11-20T16:29:59;-0.70;99.90
49855;DHT22;35752;52.164;21.244;2022-11-20T16:32:25;-0.70;99.90
49855;DHT22;35752;52.164;21.244;2022-11-20T16:34:50;-0.70;99.90
49855;DHT22;35752;52.164;21.244;2022-11-20T16:37:16;-0.70;99.90
49855;DHT22;35752;52.164;21.244;2022-11-20T16:39:42;-0.70;99.90
49855;DHT22;35752;52.164;21.244;2022-11-20T16:42:07;-0.80;99.90
49855;DHT22;35752;52.164;21.244;2022-11-20T16:44:33;-0.80;99.90
49855;DHT22;35752;52.164;21.244;2022-11-20T16:46:59;-0.80;99.90
49855;DHT22;35752;52.164;21.244;2022-11-20T16:49:24;-0.80;99.90
49855;DHT22;35752;52.164;21.244;2022-11-20T16:51:50;-0.80;99.90
49855;DHT22;35752;52.164;21.244;2022-11-20T16:54:16;-0.80;99.90
49855;DHT22;35752;52.164;21.244;2022-11-20T16:56:41;-0.90;99.90
49855;DHT22;35752;52.164;21.244;2022-11-20T16:59:07;-0.90;99.90
49855;DHT22;35752;52.164;21.244;2022-11-20T17:01:33;-0.90;99.90
49855;DHT22;35752;52.164;21.244;2022-11-20T17:04:03;-1.00;99.90
49855;DHT22;35752;52.164;21.244;2022-11-20T17:06:32;-1.00;99.90
49855;DHT22;35752;52.164;21.244;2022-11-20T17:08:58;-1.00;99.90
49855;DHT22;35752;52.164;21.244;2022-11-20T17:11:25;-0.90;99.90
49855;DHT22;35752;52.164;21.244;2022-11-20T17:13:51;-0.90;99.90
49855;DHT22;35752;52.164;21.244;2022-11-20T17:16:21;-0.90;99.90
49855;DHT22;35752;52.164;21.244;2022-11-20T17:18:47;-0.90;99.90
49855;DHT22;35752;52.164;21.244;2022-11-20T17:21:17;-0.90;99.90
49855;DHT22;35752;52.164;21.244;2022-11-20T17:23:44;-1.00;99.90
49855;DHT22;35752;52.164;21.244;2022-11-20T17:28:53;-0.90;99.90
49855;DHT22;35752;52.164;21.244;2022-11-20T17:31:19;-0.90;99.90